createdAt,value
2018-12-15T00:01:08.641Z,82.94
2018-12-15T00:03:37.125Z,82.10
2018-12-15T00:06:05.457Z,79.54
2018-12-15T00:08:33.738Z,81.17
2018-12-15T00:11:02.018Z,82.51
2018-12-15T00:13:30.294Z,83.74
2018-12-15T00:15:58.555Z,84.09
2018-12-15T00:18:27.154Z,83.97
2018-12-15T00:20:55.438Z,84.24
2018-12-15T00:23:23.766Z,83.26
2018-12-15T00:25:52.035Z,84.34
2018-12-15T00:28:20.301Z,83.36
2018-12-15T00:30:48.557Z,83.09
2018-12-15T00:33:17.119Z,83.15
2018-12-15T00:35:45.426Z,81.48
2018-12-15T00:38:13.687Z,82.71
2018-12-15T00:43:20.083Z,82.58
2018-12-15T00:45:48.384Z,82.49
2018-12-15T00:48:16.649Z,82.44
2018-12-15T00:50:44.927Z,82.75
2018-12-15T00:53:13.196Z,82.79
2018-12-15T00:55:41.471Z,81.63
2018-12-15T00:58:09.760Z,83.39
2018-12-15T01:00:38.032Z,82.32
2018-12-15T01:03:06.298Z,82.37
2018-12-15T01:05:34.576Z,82.31
2018-12-15T01:08:02.851Z,81.13
2018-12-15T01:10:31.116Z,81.04
2018-12-15T01:12:59.494Z,82.11
2018-12-15T01:15:33.163Z,81.31
2018-12-15T01:18:01.434Z,82.09
2018-12-15T01:20:29.711Z,80.95
2018-12-15T01:25:36.141Z,80.02
2018-12-15T01:28:04.406Z,79.99
2018-12-15T01:30:32.704Z,81.47
2018-12-15T01:33:00.996Z,80.27
2018-12-15T01:35:29.250Z,80.95
2018-12-15T01:37:57.604Z,80.74
2018-12-15T01:40:25.867Z,79.95
2018-12-15T01:42:54.151Z,79.82
2018-12-15T01:45:22.399Z,78.80
2018-12-15T01:47:50.690Z,78.52
2018-12-15T01:50:18.968Z,78.12
2018-12-15T01:52:47.224Z,78.26
2018-12-15T01:55:15.500Z,78.78
2018-12-15T01:57:43.773Z,77.60
2018-12-15T02:02:51.428Z,78.33
2018-12-15T02:05:20.974Z,76.00
2018-12-15T02:07:49.256Z,76.19
2018-12-15T02:10:17.575Z,76.79
2018-12-15T02:12:45.871Z,75.80
2018-12-15T02:15:14.225Z,73.93
2018-12-15T02:17:42.540Z,75.80
2018-12-15T02:20:10.842Z,76.27
2018-12-15T02:22:39.100Z,76.43
2018-12-15T02:25:07.586Z,75.84
2018-12-15T02:27:35.857Z,76.50
2018-12-15T02:30:05.578Z,75.86
2018-12-15T02:32:33.884Z,75.45
2018-12-15T02:35:02.160Z,76.27
2018-12-15T02:40:10.631Z,75.43
2018-12-15T02:42:39.700Z,77.69
2018-12-15T02:45:07.971Z,78.28
2018-12-15T02:47:41.392Z,78.02
2018-12-15T02:50:06.686Z,77.82
2018-12-15T02:52:35.061Z,77.63
2018-12-15T02:55:03.394Z,76.96
2018-12-15T02:57:31.648Z,77.12
2018-12-15T02:59:59.923Z,75.40
2018-12-15T03:02:28.261Z,75.62
2018-12-15T03:04:56.713Z,77.56
2018-12-15T03:07:25.068Z,77.74
2018-12-15T03:09:53.394Z,78.71
2018-12-15T03:12:21.656Z,78.79
2018-12-15T03:14:49.906Z,79.05
2018-12-15T03:17:18.170Z,78.83
2018-12-15T03:19:46.431Z,78.80
2018-12-15T03:22:14.695Z,77.65
2018-12-15T03:24:42.967Z,77.43
2018-12-15T03:27:11.248Z,78.42
2018-12-15T03:29:39.523Z,78.36
2018-12-15T03:32:07.787Z,76.47
2018-12-15T03:34:36.163Z,78.01
2018-12-15T03:37:04.436Z,77.73
2018-12-15T03:39:32.723Z,78.25
2018-12-15T03:42:01.208Z,77.85
2018-12-15T03:44:29.459Z,77.23
2018-12-15T03:46:57.835Z,76.99
2018-12-15T03:49:26.143Z,76.59
2018-12-15T03:51:54.403Z,76.80
2018-12-15T03:54:22.677Z,76.45
2018-12-15T03:56:50.953Z,77.53
2018-12-15T04:02:00.036Z,77.64
2018-12-15T04:04:28.795Z,78.10
2018-12-15T04:06:57.102Z,76.12
2018-12-15T04:09:25.360Z,76.70
2018-12-15T04:11:53.726Z,78.58
2018-12-15T04:14:22.273Z,78.32
2018-12-15T04:16:50.561Z,77.19
2018-12-15T04:19:18.815Z,75.36
2018-12-15T04:21:47.098Z,77.16
2018-12-15T04:24:15.403Z,78.15
2018-12-15T04:26:43.670Z,78.28
2018-12-15T04:29:12.005Z,77.63
2018-12-15T04:31:40.356Z,77.97
2018-12-15T04:34:08.722Z,77.01
2018-12-15T04:39:15.238Z,77.17
2018-12-15T04:41:43.506Z,75.75
2018-12-15T04:44:11.876Z,76.58
2018-12-15T04:49:18.360Z,76.13
2018-12-15T04:51:46.634Z,77.98
2018-12-15T04:54:14.886Z,79.04
2018-12-15T04:56:43.204Z,80.68
2018-12-15T04:59:11.469Z,79.39
2018-12-15T05:01:39.740Z,78.59
2018-12-15T05:04:07.996Z,75.66
2018-12-15T05:06:36.313Z,77.21
2018-12-15T05:09:06.051Z,77.62
2018-12-15T05:11:34.316Z,77.95
2018-12-15T05:14:02.637Z,77.17
2018-12-15T05:16:30.918Z,76.92
2018-12-15T05:18:59.179Z,76.75
2018-12-15T05:24:05.684Z,75.57
2018-12-15T05:26:34.295Z,75.29
2018-12-15T05:29:02.571Z,75.87
2018-12-15T05:31:30.834Z,75.96
2018-12-15T05:33:59.103Z,75.28
2018-12-15T05:36:27.373Z,76.06
2018-12-15T05:38:55.676Z,75.56
2018-12-15T05:41:24.219Z,74.88
2018-12-15T05:43:52.532Z,75.92
2018-12-15T05:46:20.830Z,76.33
2018-12-15T05:48:49.156Z,76.16
2018-12-15T05:51:17.474Z,76.88
2018-12-15T05:53:45.736Z,76.16
2018-12-15T05:56:14.003Z,74.73
2018-12-15T05:58:42.296Z,76.11
2018-12-15T06:01:10.552Z,74.84
2018-12-15T06:03:38.847Z,74.85
2018-12-15T06:06:07.106Z,75.57
2018-12-15T06:08:35.359Z,74.55
2018-12-15T06:11:03.715Z,74.08
2018-12-15T06:13:32.308Z,74.71
2018-12-15T06:16:00.567Z,74.40
2018-12-15T06:18:31.823Z,74.59
2018-12-15T06:23:37.304Z,74.86
2018-12-15T06:26:05.589Z,74.68
2018-12-15T06:28:33.844Z,75.71
2018-12-15T06:31:02.100Z,74.96
2018-12-15T06:33:30.393Z,75.10
2018-12-15T06:35:58.647Z,74.55
2018-12-15T06:38:26.916Z,75.58
2018-12-15T06:40:55.268Z,76.28
2018-12-15T06:43:23.774Z,75.08
2018-12-15T06:45:52.419Z,75.72
2018-12-15T06:48:20.709Z,76.46
2018-12-15T06:50:48.999Z,74.84
2018-12-15T06:53:17.439Z,75.44
2018-12-15T06:55:45.704Z,74.54
2018-12-15T06:58:13.973Z,75.27
2018-12-15T07:00:42.299Z,75.29
2018-12-15T07:03:10.567Z,75.12
2018-12-15T07:05:38.848Z,75.64
2018-12-15T07:08:07.128Z,75.27
2018-12-15T07:10:35.387Z,75.94
2018-12-15T07:13:03.831Z,75.29
2018-12-15T07:15:32.196Z,75.10
2018-12-15T07:18:00.479Z,75.29
2018-12-15T07:20:28.789Z,73.01
2018-12-15T07:22:57.125Z,73.38
2018-12-15T07:25:25.374Z,74.00
2018-12-15T07:30:32.259Z,73.83
2018-12-15T07:33:00.529Z,73.32
2018-12-15T07:35:28.791Z,72.79
2018-12-15T07:37:57.067Z,73.10
2018-12-15T07:40:25.352Z,72.12
2018-12-15T07:42:53.628Z,72.91
2018-12-15T07:45:21.900Z,72.63
2018-12-15T07:47:50.176Z,74.43
2018-12-15T07:50:18.743Z,72.77
2018-12-15T07:52:47.028Z,73.13
2018-12-15T07:55:15.279Z,73.11
2018-12-15T07:57:43.597Z,73.42
2018-12-15T08:00:12.116Z,73.04
2018-12-15T08:02:40.412Z,73.73
2018-12-15T08:05:08.823Z,73.18
2018-12-15T08:07:37.247Z,74.10
2018-12-15T08:13:02.598Z,74.70
2018-12-15T08:15:31.180Z,73.10
2018-12-15T08:17:59.483Z,73.89
2018-12-15T08:20:29.039Z,74.20
2018-12-15T08:22:57.322Z,73.76
2018-12-15T08:28:03.740Z,73.75
2018-12-15T08:30:31.996Z,74.45
2018-12-15T08:33:00.330Z,74.05
2018-12-15T08:35:28.678Z,71.73
2018-12-15T08:37:56.972Z,72.55
2018-12-15T08:40:25.306Z,72.18
2018-12-15T08:42:53.639Z,71.22
2018-12-15T08:45:21.908Z,72.67
2018-12-15T08:47:50.216Z,71.39
2018-12-15T08:50:18.494Z,71.39
2018-12-15T08:52:46.751Z,71.52
2018-12-15T08:55:15.106Z,72.82
2018-12-15T08:57:43.379Z,72.22
2018-12-15T09:00:11.733Z,72.78
2018-12-15T09:02:40.262Z,72.83
2018-12-15T09:05:08.736Z,72.55
2018-12-15T09:07:37.023Z,72.38
2018-12-15T09:10:05.467Z,73.19
2018-12-15T09:12:33.723Z,70.72
2018-12-15T09:15:02.055Z,71.61
2018-12-15T09:17:30.357Z,71.42
2018-12-15T09:19:58.626Z,71.95
2018-12-15T09:22:26.917Z,71.87
2018-12-15T09:24:55.664Z,71.03
2018-12-15T09:27:24.046Z,70.65
2018-12-15T09:29:52.362Z,71.46
2018-12-15T09:32:20.607Z,70.86
2018-12-15T09:34:48.865Z,69.97
2018-12-15T09:37:17.142Z,70.25
2018-12-15T09:39:45.438Z,71.78
2018-12-15T09:42:13.821Z,70.36
2018-12-15T09:44:42.095Z,70.67
2018-12-15T09:47:11.604Z,70.41
2018-12-15T09:49:39.891Z,70.98
2018-12-15T09:52:08.200Z,70.94
2018-12-15T09:54:36.536Z,70.53
2018-12-15T09:57:04.840Z,70.58
2018-12-15T09:59:33.219Z,69.84
2018-12-15T10:02:01.473Z,69.20
2018-12-15T10:04:29.755Z,69.92
2018-12-15T10:06:58.023Z,69.81
2018-12-15T10:09:26.329Z,69.49
2018-12-15T10:11:54.609Z,70.26
2018-12-15T10:14:22.860Z,71.83
2018-12-15T10:16:51.301Z,72.62
2018-12-15T10:19:24.312Z,69.59
2018-12-15T10:21:49.823Z,70.28
2018-12-15T10:24:18.079Z,70.33
2018-12-15T10:26:46.338Z,71.61
2018-12-15T10:32:20.792Z,69.17
2018-12-15T10:34:49.072Z,69.31
2018-12-15T10:37:17.324Z,69.79
2018-12-15T10:39:45.641Z,71.36
2018-12-15T10:42:13.944Z,72.10
2018-12-15T10:44:42.257Z,71.45
2018-12-15T10:47:10.525Z,69.54
2018-12-15T10:49:38.783Z,70.30
2018-12-15T10:52:07.037Z,70.25
2018-12-15T10:54:35.315Z,71.42
2018-12-15T10:57:03.580Z,72.62
2018-12-15T10:59:31.856Z,71.24
2018-12-15T11:02:00.116Z,70.74
2018-12-15T11:04:28.385Z,70.00
2018-12-15T11:06:56.719Z,70.30
2018-12-15T11:09:25.019Z,70.75
2018-12-15T11:11:53.284Z,71.71
2018-12-15T11:14:21.539Z,70.01
2018-12-15T11:16:49.861Z,69.83
2018-12-15T11:19:18.167Z,70.15
2018-12-15T11:21:46.423Z,68.75
2018-12-15T11:26:53.019Z,69.38
2018-12-15T11:29:21.365Z,69.44
2018-12-15T11:31:49.647Z,68.90
2018-12-15T11:34:17.940Z,68.99
2018-12-15T11:36:46.197Z,70.09
2018-12-15T11:39:14.930Z,69.14
2018-12-15T11:41:43.185Z,69.07
2018-12-15T11:44:11.480Z,68.98
2018-12-15T11:46:39.739Z,68.10
2018-12-15T11:49:08.047Z,68.50
2018-12-15T11:51:36.308Z,69.52
2018-12-15T11:54:04.728Z,68.79
2018-12-15T11:56:32.978Z,70.52
2018-12-15T11:59:01.260Z,69.45
2018-12-15T12:01:29.584Z,70.76
2018-12-15T12:03:57.879Z,72.93
2018-12-15T12:06:26.178Z,73.69
2018-12-15T12:08:54.456Z,74.58
2018-12-15T12:11:22.761Z,71.21
2018-12-15T12:13:51.016Z,70.51
2018-12-15T12:16:19.299Z,72.22
2018-12-15T12:18:47.640Z,74.11
2018-12-15T12:21:15.896Z,73.97
2018-12-15T12:23:44.480Z,73.12
2018-12-15T12:26:12.735Z,74.52
2018-12-15T12:28:40.987Z,72.22
2018-12-15T12:31:09.265Z,74.38
2018-12-15T12:33:37.610Z,75.02
2018-12-15T12:38:44.076Z,76.17
2018-12-15T12:43:50.552Z,72.60
2018-12-15T12:46:18.911Z,73.25
2018-12-15T12:48:47.290Z,70.83
2018-12-15T12:51:16.867Z,72.91
2018-12-15T12:53:45.134Z,75.61
2018-12-15T12:56:13.444Z,76.34
2018-12-15T13:01:24.160Z,76.94
2018-12-15T13:03:52.486Z,76.38
2018-12-15T13:06:21.389Z,73.33
2018-12-15T13:08:49.684Z,70.34
2018-12-15T13:11:17.985Z,72.74
2018-12-15T13:13:46.341Z,70.48
2018-12-15T13:16:14.624Z,71.08
2018-12-15T13:18:42.959Z,70.70
2018-12-15T13:21:11.306Z,70.18
2018-12-15T13:23:39.592Z,70.03
2018-12-15T13:26:07.980Z,70.89
2018-12-15T13:28:36.241Z,71.44
2018-12-15T13:31:04.591Z,71.13
2018-12-15T13:33:34.508Z,70.63
2018-12-15T13:38:43.005Z,72.88
2018-12-15T13:41:11.415Z,72.63
2018-12-15T13:43:40.675Z,72.28
2018-12-15T13:46:09.088Z,73.46
2018-12-15T13:48:37.371Z,73.97
2018-12-15T13:51:05.728Z,74.21
2018-12-15T13:53:33.986Z,74.82
2018-12-15T13:56:02.313Z,74.40
2018-12-15T13:58:30.604Z,75.67
2018-12-15T14:00:58.913Z,73.33
2018-12-15T14:03:27.164Z,75.70
2018-12-15T14:05:55.513Z,76.16
2018-12-15T14:08:23.827Z,77.00
2018-12-15T14:10:52.199Z,76.47
2018-12-15T14:13:20.460Z,75.98
2018-12-15T14:15:48.715Z,76.06
2018-12-15T14:18:17.035Z,75.45
2018-12-15T14:20:45.325Z,75.74
2018-12-15T14:23:13.579Z,76.25
2018-12-15T14:25:41.874Z,76.13
2018-12-15T14:28:10.180Z,76.00
2018-12-15T14:30:38.512Z,74.88
2018-12-15T14:33:06.850Z,75.09
2018-12-15T14:35:35.116Z,74.39
2018-12-15T14:38:03.465Z,74.18
2018-12-15T14:40:31.704Z,75.41
2018-12-15T14:43:00.069Z,73.93
2018-12-15T14:45:28.797Z,73.60
2018-12-15T14:47:57.096Z,75.36
2018-12-15T14:50:25.424Z,73.56
2018-12-15T14:52:53.679Z,75.19
2018-12-15T14:55:21.965Z,75.59
2018-12-15T14:57:50.311Z,75.67
2018-12-15T15:00:18.797Z,76.62
2018-12-15T15:02:47.048Z,75.96
2018-12-15T15:05:15.335Z,75.82
2018-12-15T15:07:43.607Z,76.79
2018-12-15T15:10:12.036Z,75.27
2018-12-15T15:12:40.330Z,75.58
2018-12-15T15:15:08.827Z,75.85
2018-12-15T15:17:37.129Z,75.34
2018-12-15T15:20:08.981Z,76.80
2018-12-15T15:25:11.630Z,77.58
2018-12-15T15:27:39.952Z,78.27
2018-12-15T15:30:08.473Z,77.40
2018-12-15T15:35:14.992Z,77.87
2018-12-15T15:37:43.279Z,77.92
2018-12-15T15:40:11.632Z,78.45
2018-12-15T15:42:39.895Z,78.27
2018-12-15T15:45:08.366Z,79.42
2018-12-15T15:47:36.656Z,80.19
2018-12-15T15:50:07.090Z,80.34
2018-12-15T15:52:35.440Z,81.02
2018-12-15T15:55:04.975Z,80.02
2018-12-15T15:57:33.305Z,80.73
2018-12-15T16:00:01.656Z,80.88
2018-12-15T16:02:30.064Z,80.57
2018-12-15T16:04:58.344Z,81.26
2018-12-15T16:07:26.772Z,81.30
2018-12-15T16:09:55.048Z,81.45
2018-12-15T16:12:23.400Z,81.48
2018-12-15T16:14:51.681Z,82.18
2018-12-15T16:17:20.023Z,81.84
2018-12-15T16:19:48.276Z,82.37
2018-12-15T16:22:16.774Z,83.25
2018-12-15T16:24:45.205Z,82.75
2018-12-15T16:29:51.659Z,83.50
2018-12-15T16:32:20.004Z,84.59
2018-12-15T16:34:48.356Z,84.43
2018-12-15T16:37:16.677Z,84.26
2018-12-15T16:39:45.016Z,85.52
2018-12-15T16:42:13.463Z,85.40
2018-12-15T16:44:41.768Z,84.37
2018-12-15T16:47:10.100Z,85.36
2018-12-15T16:49:38.359Z,85.42
2018-12-15T16:52:06.692Z,85.52
2018-12-15T16:54:35.068Z,85.64
2018-12-15T16:57:03.336Z,85.43
2018-12-15T16:59:31.591Z,85.73
2018-12-15T17:02:00.071Z,85.95
2018-12-15T17:04:28.387Z,86.33
2018-12-15T17:06:56.687Z,86.62
2018-12-15T17:09:25.112Z,86.23
2018-12-15T17:11:53.412Z,86.18
2018-12-15T17:14:21.865Z,86.88
2018-12-15T17:16:50.171Z,87.01
2018-12-15T17:19:18.830Z,87.43
2018-12-15T17:21:47.111Z,86.27
2018-12-15T17:24:15.400Z,87.70
2018-12-15T17:26:43.726Z,88.01
2018-12-15T17:29:11.988Z,88.65
2018-12-15T17:31:40.279Z,88.73
2018-12-15T17:34:08.600Z,88.66
2018-12-15T17:36:36.904Z,89.13
2018-12-15T17:39:07.360Z,88.89
2018-12-15T17:41:35.887Z,89.82
2018-12-15T17:44:04.228Z,90.08
2018-12-15T17:46:32.487Z,90.31
2018-12-15T17:49:00.794Z,90.68
2018-12-15T17:51:29.115Z,90.21
2018-12-15T17:56:35.706Z,90.90
2018-12-15T17:59:03.987Z,90.94
2018-12-15T18:01:32.321Z,90.64
2018-12-15T18:04:00.588Z,89.96
2018-12-15T18:06:28.916Z,91.21
2018-12-15T18:08:57.179Z,91.58
2018-12-15T18:11:25.484Z,91.48
2018-12-15T18:13:53.744Z,92.10
2018-12-15T18:16:22.045Z,91.80
2018-12-15T18:18:50.889Z,91.82
2018-12-15T18:21:19.244Z,92.26
2018-12-15T18:23:47.508Z,92.66
2018-12-15T18:26:15.811Z,92.78
2018-12-15T18:28:44.117Z,92.99
2018-12-15T18:33:50.580Z,93.15
2018-12-15T18:36:18.884Z,93.28
2018-12-15T18:38:47.179Z,93.10
2018-12-15T18:41:15.479Z,93.40
2018-12-15T18:43:43.791Z,93.44
2018-12-15T18:46:12.152Z,93.35
2018-12-15T18:48:40.471Z,93.39
2018-12-15T18:51:08.739Z,93.19
2018-12-15T18:53:37.060Z,93.72
2018-12-15T18:56:05.431Z,93.63
2018-12-15T18:58:33.700Z,93.73
2018-12-15T19:01:02.009Z,93.88
2018-12-15T19:03:30.353Z,94.48
2018-12-15T19:05:58.608Z,94.57
2018-12-15T19:08:26.949Z,94.45
2018-12-15T19:10:55.266Z,94.19
2018-12-15T19:13:23.545Z,93.74
2018-12-15T19:15:51.823Z,94.96
2018-12-15T19:18:20.100Z,94.97
2018-12-15T19:20:48.339Z,95.04
2018-12-15T19:23:16.669Z,95.08
2018-12-15T19:25:44.928Z,95.23
2018-12-15T19:28:13.236Z,95.33
2018-12-15T19:30:41.505Z,95.11
2018-12-15T19:33:09.765Z,95.17
2018-12-15T19:35:38.066Z,95.46
2018-12-15T19:38:06.411Z,95.47
2018-12-15T19:40:34.667Z,95.39
2018-12-15T19:43:02.966Z,95.90
2018-12-15T19:45:31.227Z,95.70
2018-12-15T19:47:59.539Z,95.32
2018-12-15T19:50:27.791Z,95.88
2018-12-15T19:52:56.121Z,95.52
2018-12-15T19:55:24.399Z,95.90
2018-12-15T19:57:52.747Z,95.75
2018-12-15T20:00:21.104Z,96.27
2018-12-15T20:02:49.393Z,96.34
2018-12-15T20:05:17.840Z,96.52
2018-12-15T20:07:46.192Z,96.23
2018-12-15T20:10:14.510Z,96.47
2018-12-15T20:12:42.836Z,96.02
2018-12-15T20:15:11.123Z,96.20
2018-12-15T20:17:39.414Z,96.09
2018-12-15T20:20:07.786Z,95.65
2018-12-15T20:22:36.296Z,95.71
2018-12-15T20:25:05.147Z,95.96
2018-12-15T20:27:33.412Z,95.72
2018-12-15T20:30:01.717Z,95.41
2018-12-15T20:32:31.235Z,94.24
2018-12-15T20:34:59.538Z,94.94
2018-12-15T20:37:27.844Z,95.18
2018-12-15T20:39:56.144Z,95.11
2018-12-15T20:42:24.441Z,94.65
2018-12-15T20:44:52.731Z,95.00
2018-12-15T20:49:59.185Z,95.20
2018-12-15T20:52:27.633Z,95.57
2018-12-15T20:54:55.979Z,95.11
2018-12-15T20:57:24.342Z,95.09
2018-12-15T20:59:52.620Z,95.29
2018-12-15T21:02:20.953Z,94.66
2018-12-15T21:04:49.228Z,94.47
2018-12-15T21:07:17.523Z,94.44
2018-12-15T21:09:45.798Z,94.47
2018-12-15T21:12:14.051Z,94.17
2018-12-15T21:14:42.347Z,94.02
2018-12-15T21:17:10.609Z,94.36
2018-12-15T21:19:38.945Z,94.01
2018-12-15T21:22:10.600Z,94.43
2018-12-15T21:24:39.014Z,94.34
2018-12-15T21:27:07.313Z,94.67
2018-12-15T21:29:35.576Z,94.01
2018-12-15T21:32:04.200Z,94.45
2018-12-15T21:34:32.451Z,94.19
2018-12-15T21:37:00.748Z,94.25
2018-12-15T21:39:29.050Z,93.79
2018-12-15T21:41:57.308Z,94.40
2018-12-15T21:44:25.618Z,93.97
2018-12-15T21:46:53.912Z,93.91
2018-12-15T21:49:22.208Z,94.29
2018-12-15T21:51:56.095Z,94.02
2018-12-15T21:54:20.772Z,94.07
2018-12-15T21:59:27.216Z,93.77
2018-12-15T22:01:56.385Z,94.36
2018-12-15T22:04:24.679Z,93.96
2018-12-15T22:06:53.211Z,94.26
2018-12-15T22:09:21.510Z,93.98
2018-12-15T22:11:49.773Z,94.37
2018-12-15T22:14:18.040Z,93.84
2018-12-15T22:16:46.305Z,93.98
2018-12-15T22:19:14.583Z,94.09
2018-12-15T22:21:42.985Z,93.66
2018-12-15T22:24:11.335Z,94.03
2018-12-15T22:26:39.635Z,93.87
2018-12-15T22:29:07.924Z,93.76
2018-12-15T22:31:36.246Z,94.38
2018-12-15T22:34:04.500Z,93.90
2018-12-15T22:36:32.792Z,92.82
2018-12-15T22:39:01.075Z,92.93
2018-12-15T22:41:29.326Z,93.59
2018-12-15T22:46:35.844Z,93.46
2018-12-15T22:49:04.125Z,93.01
2018-12-15T22:54:03.041Z,93.53
2018-12-15T22:56:31.328Z,92.95
2018-12-15T22:58:59.612Z,93.34
2018-12-15T23:04:14.588Z,93.73
2018-12-15T23:06:42.985Z,93.26
2018-12-15T23:09:11.367Z,93.31
2018-12-15T23:11:39.685Z,93.28
2018-12-15T23:14:07.947Z,93.99
2018-12-15T23:16:36.289Z,93.98
2018-12-15T23:21:42.759Z,93.87
2018-12-15T23:24:11.145Z,93.43
2018-12-15T23:26:40.066Z,93.27
2018-12-15T23:29:08.326Z,92.54
2018-12-15T23:31:36.599Z,93.76
2018-12-15T23:34:04.936Z,93.71
2018-12-15T23:36:33.268Z,93.72
2018-12-15T23:39:01.566Z,93.63
2018-12-15T23:41:29.859Z,93.21
2018-12-15T23:43:58.143Z,92.30
2018-12-15T23:46:26.467Z,91.76
2018-12-15T23:48:54.743Z,90.32
2018-12-15T23:51:23.013Z,91.78
2018-12-15T23:53:51.335Z,91.70
2018-12-15T23:56:19.636Z,91.98
2018-12-15T23:58:47.908Z,92.42
